createdAt,value
2022-12-13T00:01:34.521Z,-4.80
2022-12-13T00:04:06.939Z,-4.80
2022-12-13T00:06:36.868Z,-4.80
2022-12-13T00:09:06.201Z,-4.70
2022-12-13T00:11:34.628Z,-4.70
2022-12-13T00:14:02.578Z,-4.60
2022-12-13T00:16:30.808Z,-4.50
2022-12-13T00:19:00.974Z,-4.50
2022-12-13T00:21:32.170Z,-4.60
2022-12-13T00:24:01.301Z,-4.40
2022-12-13T00:26:31.074Z,-4.50
2022-12-13T00:29:00.566Z,-4.60
2022-12-13T00:34:19.876Z,-4.80
2022-12-13T00:36:49.687Z,-4.80
2022-12-13T00:39:19.071Z,-4.90
2022-12-13T00:41:47.964Z,-4.70
2022-12-13T00:44:16.144Z,-4.90
2022-12-13T00:46:44.463Z,-4.90
2022-12-13T00:49:13.889Z,-4.90
2022-12-13T00:51:42.018Z,-4.80
2022-12-13T00:54:11.718Z,-4.60
2022-12-13T00:56:39.801Z,-4.50
2022-12-13T00:59:07.858Z,-4.60
2022-12-13T01:01:37.523Z,-4.90
2022-12-13T01:04:07.224Z,-4.90
2022-12-13T01:06:37.728Z,-4.80
2022-12-13T01:09:08.010Z,-5.00
2022-12-13T01:11:37.298Z,-5.00
2022-12-13T01:14:05.277Z,-5.10
2022-12-13T01:16:33.266Z,-5.00
2022-12-13T01:19:01.322Z,-5.00
2022-12-13T01:21:29.843Z,-4.90
2022-12-13T01:24:03.229Z,-4.80
2022-12-13T01:26:31.622Z,-4.80
2022-12-13T01:29:01.072Z,-4.80
2022-12-13T01:31:29.573Z,-4.80
2022-12-13T01:33:58.152Z,-4.80
2022-12-13T01:36:27.869Z,-4.80
2022-12-13T01:38:58.568Z,-5.00
2022-12-13T01:41:27.938Z,-5.10
2022-12-13T01:44:00.844Z,-5.10
2022-12-13T01:46:31.400Z,-5.20
2022-12-13T01:49:19.792Z,-5.20
2022-12-13T01:51:52.649Z,-5.30
2022-12-13T01:54:23.991Z,-5.30
2022-12-13T01:57:00.729Z,-5.40
2022-12-13T01:59:29.633Z,-5.40
2022-12-13T02:02:00.957Z,-5.60
2022-12-13T02:04:32.846Z,-5.60
2022-12-13T02:07:02.258Z,-5.70
2022-12-13T02:09:30.354Z,-5.90
2022-12-13T02:11:59.054Z,-5.90
2022-12-13T02:14:26.977Z,-6.20
2022-12-13T02:17:04.269Z,-6.20
2022-12-13T02:20:02.602Z,-6.20
2022-12-13T02:22:47.623Z,-6.40
2022-12-13T02:25:40.266Z,-6.30
2022-12-13T02:28:31.696Z,-6.40
2022-12-13T02:31:07.837Z,-6.50
2022-12-13T02:33:51.539Z,-6.40
2022-12-13T02:36:29.107Z,-6.50
2022-12-13T02:39:11.413Z,-6.60
2022-12-13T02:41:46.858Z,-6.90
2022-12-13T02:44:22.373Z,-7.00
2022-12-13T02:46:56.575Z,-7.00
2022-12-13T02:49:26.530Z,-7.00
2022-12-13T02:51:57.213Z,-7.00
2022-12-13T02:54:25.469Z,-7.10
2022-12-13T02:56:57.499Z,-7.30
2022-12-13T02:59:29.378Z,-7.80
2022-12-13T03:02:12.293Z,-7.80
2022-12-13T03:05:07.448Z,-7.80
2022-12-13T03:07:41.042Z,-7.80
2022-12-13T03:10:16.741Z,-7.80
2022-12-13T03:13:08.591Z,-7.90
2022-12-13T03:15:43.850Z,-8.00
2022-12-13T03:18:16.495Z,-8.10
2022-12-13T03:20:47.845Z,-8.20
2022-12-13T03:23:16.246Z,-8.80
2022-12-13T03:25:46.782Z,-8.90
2022-12-13T03:28:15.094Z,-8.90
2022-12-13T03:30:43.026Z,-8.80
2022-12-13T03:33:10.935Z,-8.80
2022-12-13T03:35:45.126Z,-8.70
2022-12-13T03:38:21.505Z,-8.90
2022-12-13T03:40:52.620Z,-9.00
2022-12-13T03:43:22.202Z,-9.10
2022-12-13T03:45:51.178Z,-9.20
2022-12-13T03:48:21.650Z,-9.20
2022-12-13T03:50:54.481Z,-9.60
2022-12-13T03:53:33.000Z,-9.80
2022-12-13T03:56:02.195Z,-9.80
2022-12-13T03:58:36.270Z,-9.80
2022-12-13T04:01:07.406Z,-10.10
2022-12-13T04:03:35.948Z,-10.00
2022-12-13T04:06:06.349Z,-10.30
2022-12-13T04:08:35.259Z,-10.60
2022-12-13T04:11:25.608Z,-10.80
2022-12-13T04:13:53.133Z,-10.90
2022-12-13T04:16:21.432Z,-10.80
2022-12-13T04:18:49.418Z,-10.90
2022-12-13T04:21:18.716Z,-10.90
2022-12-13T04:23:46.662Z,-10.90
2022-12-13T04:26:14.794Z,-10.90
2022-12-13T04:28:42.951Z,-10.80
2022-12-13T04:31:10.951Z,-11.10
2022-12-13T04:33:38.910Z,-11.50
2022-12-13T04:36:09.247Z,-11.70
2022-12-13T04:38:38.538Z,-11.90
2022-12-13T04:41:08.294Z,-11.90
2022-12-13T04:43:36.247Z,-11.60
2022-12-13T04:46:04.238Z,-11.40
2022-12-13T04:48:33.346Z,-11.20
2022-12-13T04:51:01.889Z,-11.10
2022-12-13T04:53:30.067Z,-11.10
2022-12-13T04:55:59.619Z,-11.40
2022-12-13T04:58:28.596Z,-11.40
2022-12-13T05:00:56.596Z,-11.50
2022-12-13T05:03:25.162Z,-11.60
2022-12-13T05:05:53.062Z,-11.60
2022-12-13T05:08:21.480Z,-11.70
2022-12-13T05:10:49.546Z,-11.80
2022-12-13T05:13:18.847Z,-11.50
2022-12-13T05:15:50.780Z,-11.50
2022-12-13T05:18:23.030Z,-11.50
2022-12-13T05:20:51.919Z,-11.40
2022-12-13T05:23:22.218Z,-11.40
2022-12-13T05:25:51.749Z,-11.30
2022-12-13T05:28:27.976Z,-11.10
2022-12-13T05:30:58.552Z,-11.30
2022-12-13T05:33:27.129Z,-11.30
2022-12-13T05:36:00.008Z,-11.20
2022-12-13T05:38:31.021Z,-11.40
2022-12-13T05:40:59.299Z,-11.60
2022-12-13T05:43:42.261Z,-12.20
2022-12-13T05:46:12.011Z,-12.70
2022-12-13T05:48:40.590Z,-12.70
2022-12-13T05:51:10.039Z,-12.50
2022-12-13T05:53:39.885Z,-12.70
2022-12-13T05:56:08.558Z,-12.80
2022-12-13T05:58:38.636Z,-12.60
2022-12-13T06:01:08.582Z,-12.70
2022-12-13T06:03:36.652Z,-12.60
2022-12-13T06:06:05.501Z,-12.40
2022-12-13T06:08:33.991Z,-12.50
2022-12-13T06:11:09.910Z,-12.50
2022-12-13T06:13:42.076Z,-12.40
2022-12-13T06:16:22.025Z,-12.30
2022-12-13T06:18:55.765Z,-12.30
2022-12-13T06:21:27.362Z,-12.10
2022-12-13T06:23:55.998Z,-12.00
2022-12-13T06:26:23.892Z,-12.00
2022-12-13T06:28:53.413Z,-12.20
2022-12-13T06:31:21.632Z,-12.30
2022-12-13T06:33:50.306Z,-12.40
2022-12-13T06:36:18.370Z,-12.40
2022-12-13T06:38:46.298Z,-12.30
2022-12-13T06:41:16.666Z,-12.30
2022-12-13T06:43:45.239Z,-12.20
2022-12-13T06:46:15.272Z,-12.30
2022-12-13T06:48:43.260Z,-12.40
2022-12-13T06:51:11.782Z,-12.30
2022-12-13T06:53:41.146Z,-12.40
2022-12-13T06:56:11.445Z,-12.50
2022-12-13T06:58:40.002Z,-12.40
2022-12-13T07:01:14.849Z,-12.60
2022-12-13T07:03:55.965Z,-12.60
2022-12-13T07:06:25.657Z,-12.90
2022-12-13T07:08:56.041Z,-12.90
2022-12-13T07:11:26.325Z,-12.80
2022-12-13T07:13:55.027Z,-12.70
2022-12-13T07:16:24.376Z,-12.90
2022-12-13T07:19:01.307Z,-13.00
2022-12-13T07:21:30.542Z,-12.80
2022-12-13T07:23:58.728Z,-12.70
2022-12-13T07:26:26.703Z,-12.60
2022-12-13T07:28:55.700Z,-12.80
2022-12-13T07:31:25.057Z,-12.80
2022-12-13T07:33:53.746Z,-13.00
2022-12-13T07:36:24.671Z,-13.10
2022-12-13T07:38:54.627Z,-12.90
2022-12-13T07:41:24.048Z,-12.90
2022-12-13T07:43:55.341Z,-13.00
2022-12-13T07:46:33.612Z,-13.00
2022-12-13T07:49:02.571Z,-13.00
2022-12-13T07:51:33.714Z,-12.70
2022-12-13T07:54:06.170Z,-12.70
2022-12-13T07:56:34.836Z,-12.50
2022-12-13T07:59:02.952Z,-12.30
2022-12-13T08:01:34.374Z,-12.10
2022-12-13T08:04:03.088Z,-12.00
2022-12-13T08:06:35.871Z,-12.00
2022-12-13T08:09:05.648Z,-12.00
2022-12-13T08:11:33.635Z,-12.30
2022-12-13T08:14:01.607Z,-12.10
2022-12-13T08:16:30.324Z,-12.00
2022-12-13T08:19:01.597Z,-12.20
2022-12-13T08:24:23.610Z,-11.70
2022-12-13T08:26:51.718Z,-11.50
2022-12-13T08:29:22.482Z,-11.50
2022-12-13T08:31:51.721Z,-11.60
2022-12-13T08:34:19.797Z,-11.50
2022-12-13T08:36:49.133Z,-11.10
2022-12-13T08:39:17.357Z,-10.90
2022-12-13T08:41:45.281Z,-10.70
2022-12-13T08:44:13.218Z,-10.90
2022-12-13T08:46:41.206Z,-10.90
2022-12-13T08:49:09.279Z,-10.80
2022-12-13T08:51:37.346Z,-10.70
2022-12-13T08:54:10.492Z,-9.80
2022-12-13T08:56:39.898Z,-9.10
2022-12-13T08:59:12.248Z,-9.40
2022-12-13T09:01:44.091Z,-9.70
2022-12-13T09:04:12.164Z,-9.80
2022-12-13T09:06:42.437Z,-9.70
2022-12-13T09:09:11.860Z,-9.80
2022-12-13T09:11:41.124Z,-9.50
2022-12-13T09:14:09.171Z,-9.30
2022-12-13T09:16:42.346Z,-9.20
2022-12-13T09:19:25.862Z,-9.00
2022-12-13T09:22:02.644Z,-8.70
2022-12-13T09:24:36.414Z,-8.90
2022-12-13T09:27:09.226Z,-9.10
2022-12-13T09:29:38.095Z,-9.60
2022-12-13T09:32:06.754Z,-10.10
2022-12-13T09:34:34.838Z,-9.90
2022-12-13T09:37:02.848Z,-10.30
2022-12-13T09:39:32.145Z,-10.40
2022-12-13T09:42:10.351Z,-10.10
2022-12-13T09:44:49.684Z,-10.10
2022-12-13T09:47:35.391Z,-10.30
2022-12-13T09:50:07.916Z,-10.30
2022-12-13T09:52:45.764Z,-10.20
2022-12-13T09:55:21.995Z,-10.20
2022-12-13T09:57:51.280Z,-9.90
2022-12-13T10:00:22.133Z,-9.70
2022-12-13T10:02:52.422Z,-9.60
2022-12-13T10:05:34.046Z,-9.60
2022-12-13T10:08:08.974Z,-9.50
2022-12-13T10:10:39.443Z,-9.50
2022-12-13T10:13:16.170Z,-9.30
2022-12-13T10:15:48.595Z,-9.10
2022-12-13T10:18:26.326Z,-9.20
2022-12-13T10:20:55.448Z,-8.90
2022-12-13T10:23:38.521Z,-8.70
2022-12-13T10:26:24.563Z,-8.70
2022-12-13T10:29:04.062Z,-8.70
2022-12-13T10:31:40.753Z,-8.50
2022-12-13T10:34:18.038Z,-8.40
2022-12-13T10:36:46.020Z,-8.30
2022-12-13T10:39:19.041Z,-8.40
2022-12-13T10:41:48.490Z,-8.40
2022-12-13T10:44:25.842Z,-8.30
2022-12-13T10:47:17.028Z,-8.30
2022-12-13T10:49:58.901Z,-8.10
2022-12-13T10:52:31.961Z,-7.80
2022-12-13T10:55:04.710Z,-7.70
2022-12-13T10:57:55.028Z,-7.70
2022-12-13T11:00:36.040Z,-7.60
2022-12-13T11:03:04.184Z,-7.50
2022-12-13T11:05:37.625Z,-7.50
2022-12-13T11:08:17.466Z,-7.50
2022-12-13T11:10:45.522Z,-7.50
2022-12-13T11:13:25.925Z,-7.30
2022-12-13T11:15:57.506Z,-7.10
2022-12-13T11:18:27.993Z,-7.10
2022-12-13T11:20:59.860Z,-7.00
2022-12-13T11:23:32.433Z,-7.10
2022-12-13T11:26:06.104Z,-6.90
2022-12-13T11:28:48.054Z,-6.80
2022-12-13T11:31:26.164Z,-6.80
2022-12-13T11:34:02.188Z,-6.90
2022-12-13T11:36:38.566Z,-6.60
2022-12-13T11:39:17.063Z,-6.60
2022-12-13T11:41:53.119Z,-6.80
2022-12-13T11:44:28.463Z,-6.80
2022-12-13T11:46:59.531Z,-6.60
2022-12-13T11:49:38.337Z,-6.50
2022-12-13T11:52:13.566Z,-6.70
2022-12-13T11:54:51.393Z,-6.50
2022-12-13T11:57:36.643Z,-6.10
2022-12-13T12:00:34.279Z,-5.90
2022-12-13T12:03:21.647Z,-5.80
2022-12-13T12:05:55.975Z,-5.70
2022-12-13T12:08:32.195Z,-5.70
2022-12-13T12:11:08.445Z,-5.30
2022-12-13T12:13:50.480Z,-5.10
2022-12-13T12:16:31.794Z,-5.10
2022-12-13T12:19:01.355Z,-5.20
2022-12-13T12:24:54.182Z,-4.80
2022-12-13T12:27:32.513Z,-4.60
2022-12-13T12:30:22.917Z,-4.40
2022-12-13T12:33:02.461Z,-4.20
2022-12-13T12:35:59.563Z,-4.30
2022-12-13T12:38:51.572Z,-4.50
2022-12-13T12:41:30.256Z,-4.70
2022-12-13T12:44:09.378Z,-4.60
2022-12-13T12:47:01.863Z,-4.40
2022-12-13T12:50:12.223Z,-4.10
2022-12-13T12:52:52.326Z,-4.10
2022-12-13T12:55:26.086Z,-3.90
2022-12-13T12:58:03.409Z,-3.80
2022-12-13T13:00:39.746Z,-3.90
2022-12-13T13:03:22.394Z,-4.10
2022-12-13T13:06:01.719Z,-4.00
2022-12-13T13:08:35.611Z,-3.80
2022-12-13T13:11:25.162Z,-3.80
2022-12-13T13:14:06.443Z,-3.90
2022-12-13T13:16:38.338Z,-3.60
2022-12-13T13:19:07.021Z,-3.50
2022-12-13T13:21:47.673Z,-3.80
2022-12-13T13:24:19.571Z,-3.80
2022-12-13T13:26:49.707Z,-3.70
2022-12-13T13:29:33.918Z,-3.80
2022-12-13T13:32:05.276Z,-3.50
2022-12-13T13:34:34.968Z,-3.30
2022-12-13T13:37:04.969Z,-3.20
2022-12-13T13:40:00.791Z,-3.30
2022-12-13T13:42:29.909Z,-3.60
2022-12-13T13:45:23.677Z,-3.60
2022-12-13T13:48:15.223Z,-3.40
2022-12-13T13:51:15.288Z,-3.30
2022-12-13T13:54:29.094Z,-3.40
2022-12-13T13:57:33.221Z,-3.50
2022-12-13T14:00:22.395Z,-3.60
2022-12-13T14:03:54.721Z,-3.50
2022-12-13T14:07:01.099Z,-3.50
2022-12-13T14:09:54.381Z,-3.40
2022-12-13T14:13:01.805Z,-3.70
2022-12-13T14:16:07.562Z,-3.70
2022-12-13T14:19:13.158Z,-3.60
2022-12-13T14:21:51.095Z,-3.60
2022-12-13T14:24:28.880Z,-3.70
2022-12-13T14:27:10.238Z,-3.70
2022-12-13T14:29:48.191Z,-3.80
2022-12-13T14:32:26.125Z,-3.80
2022-12-13T14:34:55.405Z,-3.80
2022-12-13T14:37:28.263Z,-3.80
2022-12-13T14:39:56.748Z,-3.80
2022-12-13T14:42:29.746Z,-3.90
2022-12-13T14:45:13.424Z,-4.00
2022-12-13T14:47:42.745Z,-4.00
2022-12-13T14:50:13.666Z,-4.20
2022-12-13T14:52:42.153Z,-4.10
2022-12-13T14:55:25.431Z,-4.00
2022-12-13T14:57:56.503Z,-4.10
2022-12-13T15:00:27.829Z,-4.20
2022-12-13T15:02:59.877Z,-4.30
2022-12-13T15:05:29.702Z,-4.40
2022-12-13T15:07:58.809Z,-4.40
2022-12-13T15:10:40.648Z,-4.60
2022-12-13T15:13:24.989Z,-4.70
2022-12-13T15:16:01.338Z,-4.90
2022-12-13T15:18:31.101Z,-4.80
2022-12-13T15:20:59.378Z,-5.00
2022-12-13T15:23:32.254Z,-5.20
2022-12-13T15:26:03.335Z,-5.50
2022-12-13T15:28:35.814Z,-5.80
2022-12-13T15:31:07.001Z,-5.80
2022-12-13T15:33:40.799Z,-6.00
2022-12-13T15:36:18.050Z,-6.20
2022-12-13T15:38:50.843Z,-6.30
2022-12-13T15:41:20.662Z,-6.40
2022-12-13T15:43:52.928Z,-6.70
2022-12-13T15:46:26.604Z,-6.80
2022-12-13T15:48:56.749Z,-6.70
2022-12-13T15:51:28.766Z,-6.90
2022-12-13T15:54:03.453Z,-7.00
2022-12-13T15:56:33.579Z,-7.10
2022-12-13T15:59:04.407Z,-7.10
2022-12-13T16:01:35.890Z,-7.20
2022-12-13T16:04:05.884Z,-7.30
2022-12-13T16:06:34.836Z,-7.40
2022-12-13T16:09:06.933Z,-7.40
2022-12-13T16:11:38.255Z,-7.40
2022-12-13T16:14:48.821Z,-7.50
2022-12-13T16:17:24.435Z,-7.60
2022-12-13T16:19:53.257Z,-7.70
2022-12-13T16:22:23.624Z,-7.80
2022-12-13T16:24:52.693Z,-7.80
2022-12-13T16:27:20.635Z,-7.80
2022-12-13T16:29:49.925Z,-7.80
2022-12-13T16:32:17.895Z,-7.80
2022-12-13T16:34:45.847Z,-8.00
2022-12-13T16:37:26.660Z,-8.00
2022-12-13T16:39:55.259Z,-8.10
2022-12-13T16:42:26.177Z,-8.00
2022-12-13T16:45:40.625Z,-8.10
2022-12-13T16:47:49.267Z,-8.40
2022-12-13T16:50:19.490Z,-8.60
2022-12-13T16:52:47.738Z,-8.70
2022-12-13T16:55:16.423Z,-9.00
2022-12-13T16:57:44.398Z,-9.00
2022-12-13T17:00:15.995Z,-9.10
2022-12-13T17:02:44.142Z,-9.00
2022-12-13T17:05:12.081Z,-9.20
2022-12-13T17:07:39.972Z,-9.10
2022-12-13T17:10:10.226Z,-8.90
2022-12-13T17:12:38.246Z,-9.00
2022-12-13T17:15:08.429Z,-9.20
2022-12-13T17:17:39.380Z,-9.10
2022-12-13T17:20:09.487Z,-9.10
2022-12-13T17:22:37.730Z,-9.00
2022-12-13T17:25:07.112Z,-8.90
2022-12-13T17:27:35.209Z,-8.90
2022-12-13T17:30:03.126Z,-9.10
2022-12-13T17:32:31.017Z,-9.50
2022-12-13T17:35:00.354Z,-9.50
2022-12-13T17:37:28.298Z,-10.10
2022-12-13T17:39:56.255Z,-10.10
2022-12-13T17:42:24.358Z,-9.90
2022-12-13T17:44:52.453Z,-9.90
2022-12-13T17:47:20.338Z,-10.30
2022-12-13T17:49:48.227Z,-10.50
2022-12-13T17:52:17.514Z,-10.60
2022-12-13T17:54:45.397Z,-10.70
2022-12-13T17:57:13.545Z,-10.70
2022-12-13T17:59:43.196Z,-10.70
2022-12-13T18:02:13.967Z,-10.60
2022-12-13T18:04:42.085Z,-10.50
2022-12-13T18:07:10.274Z,-10.60
2022-12-13T18:09:39.578Z,-10.70
2022-12-13T18:12:08.363Z,-10.50
2022-12-13T18:14:36.365Z,-10.50
2022-12-13T18:17:04.689Z,-10.50
2022-12-13T18:19:32.730Z,-10.60
2022-12-13T18:22:01.279Z,-10.60
2022-12-13T18:24:29.393Z,-10.60
2022-12-13T18:26:58.950Z,-10.70
2022-12-13T18:29:27.531Z,-10.80
2022-12-13T18:31:55.537Z,-10.80
2022-12-13T18:34:23.587Z,-10.90
2022-12-13T18:36:51.566Z,-11.00
2022-12-13T18:39:19.655Z,-11.00
2022-12-13T18:41:47.573Z,-11.10
2022-12-13T18:44:16.871Z,-11.00
2022-12-13T18:46:46.738Z,-11.00
2022-12-13T18:49:15.055Z,-11.00
2022-12-13T18:51:43.173Z,-11.20
2022-12-13T18:54:11.134Z,-11.20
2022-12-13T18:56:39.212Z,-11.30
2022-12-13T18:59:07.125Z,-11.30
2022-12-13T19:01:36.474Z,-11.30
2022-12-13T19:04:04.612Z,-11.40
2022-12-13T19:06:32.693Z,-11.60
2022-12-13T19:09:00.613Z,-11.70
2022-12-13T19:11:29.810Z,-11.60
2022-12-13T19:13:58.208Z,-11.60
2022-12-13T19:16:26.619Z,-11.60
2022-12-13T19:18:56.267Z,-11.60
2022-12-13T19:21:24.814Z,-11.60
2022-12-13T19:23:57.861Z,-11.70
2022-12-13T19:26:28.738Z,-11.60
2022-12-13T19:28:58.397Z,-11.50
2022-12-13T19:31:31.777Z,-11.50
2022-12-13T19:34:03.478Z,-11.40
2022-12-13T19:36:32.317Z,-11.50
2022-12-13T19:39:00.425Z,-11.40
2022-12-13T19:41:29.451Z,-11.60
2022-12-13T19:43:57.330Z,-11.60
2022-12-13T19:46:25.740Z,-11.70
2022-12-13T19:48:53.889Z,-11.90
2022-12-13T19:51:23.632Z,-11.80
2022-12-13T19:53:52.029Z,-11.80
2022-12-13T19:56:21.835Z,-11.70
2022-12-13T19:58:51.244Z,-11.70
2022-12-13T20:01:19.663Z,-11.70
2022-12-13T20:03:48.210Z,-11.80
2022-12-13T20:06:18.932Z,-11.70
2022-12-13T20:08:48.307Z,-11.60
2022-12-13T20:11:20.238Z,-11.60
2022-12-13T20:13:49.155Z,-11.50
2022-12-13T20:16:19.512Z,-11.40
2022-12-13T20:18:47.958Z,-11.40
2022-12-13T20:21:16.255Z,-11.40
2022-12-13T20:23:49.718Z,-11.20
2022-12-13T20:26:21.736Z,-10.90
2022-12-13T20:28:50.568Z,-10.70
2022-12-13T20:31:20.218Z,-10.60
2022-12-13T20:33:49.025Z,-10.40
2022-12-13T20:36:27.411Z,-10.40
2022-12-13T20:38:57.428Z,-10.30
2022-12-13T20:41:28.610Z,-10.20
2022-12-13T20:43:58.501Z,-10.10
2022-12-13T20:46:27.831Z,-10.10
2022-12-13T20:48:57.649Z,-10.00
2022-12-13T20:51:27.693Z,-10.00
2022-12-13T20:53:56.030Z,-10.10
2022-12-13T20:56:27.083Z,-10.00
2022-12-13T20:58:55.558Z,-9.80
2022-12-13T21:01:25.410Z,-9.70
2022-12-13T21:03:55.120Z,-9.50
2022-12-13T21:06:23.631Z,-9.50
2022-12-13T21:08:52.416Z,-9.50
2022-12-13T21:11:27.553Z,-9.40
2022-12-13T21:14:07.419Z,-9.40
2022-12-13T21:16:39.094Z,-9.50
2022-12-13T21:19:08.428Z,-9.40
2022-12-13T21:21:37.019Z,-9.20
2022-12-13T21:24:05.698Z,-9.20
2022-12-13T21:26:36.106Z,-9.10
2022-12-13T21:29:07.693Z,-8.90
2022-12-13T21:31:36.894Z,-8.70
2022-12-13T21:34:06.650Z,-8.70
2022-12-13T21:36:36.433Z,-8.50
2022-12-13T21:39:07.317Z,-8.50
2022-12-13T21:41:35.409Z,-8.30
2022-12-13T21:44:03.286Z,-8.20
2022-12-13T21:47:11.511Z,-8.00
2022-12-13T21:49:20.547Z,-8.00
2022-12-13T21:51:48.773Z,-8.00
2022-12-13T21:54:17.678Z,-8.00
2022-12-13T21:57:03.261Z,-7.90
2022-12-13T21:59:31.771Z,-7.90
2022-12-13T22:02:19.154Z,-7.70
2022-12-13T22:04:48.624Z,-7.60
2022-12-13T22:07:18.640Z,-7.40
2022-12-13T22:09:47.856Z,-7.40
2022-12-13T22:12:21.833Z,-7.10
2022-12-13T22:14:50.599Z,-6.70
2022-12-13T22:17:24.964Z,-6.70
2022-12-13T22:19:55.423Z,-6.50
2022-12-13T22:22:24.645Z,-6.20
2022-12-13T22:24:53.659Z,-6.20
2022-12-13T22:27:23.909Z,-6.10
2022-12-13T22:29:52.425Z,-6.00
2022-12-13T22:32:22.409Z,-6.10
2022-12-13T22:34:50.786Z,-5.90
2022-12-13T22:37:18.785Z,-5.80
2022-12-13T22:39:46.935Z,-6.00
2022-12-13T22:42:15.416Z,-5.90
2022-12-13T22:44:43.397Z,-5.70
2022-12-13T22:47:11.393Z,-5.80
2022-12-13T22:49:41.004Z,-5.80
2022-12-13T22:52:09.035Z,-5.80
2022-12-13T22:54:36.932Z,-5.70
2022-12-13T22:57:05.058Z,-5.70
2022-12-13T22:59:33.027Z,-5.60
2022-12-13T23:02:03.053Z,-5.60
2022-12-13T23:04:31.654Z,-5.50
2022-12-13T23:07:00.964Z,-5.50
2022-12-13T23:09:28.892Z,-5.50
2022-12-13T23:12:14.238Z,-5.50
2022-12-13T23:14:42.476Z,-5.40
2022-12-13T23:17:10.410Z,-5.40
2022-12-13T23:19:48.661Z,-5.40
2022-12-13T23:22:18.461Z,-5.40
2022-12-13T23:24:46.391Z,-5.40
2022-12-13T23:27:14.585Z,-5.40
2022-12-13T23:29:42.553Z,-5.30
2022-12-13T23:32:10.580Z,-5.40
2022-12-13T23:34:38.501Z,-5.50
2022-12-13T23:37:06.499Z,-5.50
2022-12-13T23:39:35.765Z,-5.60
2022-12-13T23:42:03.707Z,-5.50
2022-12-13T23:44:31.623Z,-5.60
2022-12-13T23:46:59.573Z,-5.60
2022-12-13T23:49:27.609Z,-5.70
2022-12-13T23:51:55.548Z,-5.70
2022-12-13T23:54:23.457Z,-5.60
2022-12-13T23:56:52.906Z,-6.10
2022-12-13T23:59:20.830Z,-5.80
